Time;durP1;ratioP1;P1;durP2;ratioP2;P2;SDS_P1;SDS_P2;PMS_P1;PMS_P2;Temp;Humidity;BMP_temperature;BMP_pressure;BME280_temperature;BME280_humidity;BME280_pressure;Samples;Min_cycle;Max_cycle;Signal;HPM_P1;HPM_P2
2021/09/07 00:01:44;;;;;;;;;12.00;10.75;;;;;18.22;41.21;99276.84;4967955;28;102598;-82
2021/09/07 00:04:12;;;;;;;;;11.00;10.00;;;;;18.22;41.04;99277.69;4971813;28;102673;-82
2021/09/07 00:06:39;;;;;;;;;13.75;13.00;;;;;18.21;41.46;99281.47;4969712;28;104064;-82
2021/09/07 00:09:07;;;;;;;;;12.00;11.00;;;;;18.19;40.66;99274.59;4951559;28;104737;-82
2021/09/07 00:11:34;;;;;;;;;15.00;12.75;;;;;18.20;41.41;99278.97;4952240;28;102629;-82
2021/09/07 00:14:01;;;;;;;;;12.25;11.75;;;;;18.18;40.76;99275.66;4964359;28;102835;-82
2021/09/07 00:16:29;;;;;;;;;14.50;12.00;;;;;18.17;41.11;99280.28;4965950;28;103261;-82
2021/09/07 00:18:56;;;;;;;;;12.00;11.00;;;;;18.15;41.28;99274.19;4965030;28;102704;-82
2021/09/07 00:21:23;;;;;;;;;12.75;12.00;;;;;18.13;41.41;99267.31;4976913;28;102267;-82
2021/09/07 00:23:50;;;;;;;;;12.75;10.75;;;;;18.14;40.61;99269.81;4970247;28;104509;-82
2021/09/07 00:26:18;;;;;;;;;14.50;12.75;;;;;18.12;41.37;99268.38;4981730;27;104041;-82
2021/09/07 00:28:50;;;;;;;;;14.75;12.25;;;;;18.09;40.91;99271.56;4958955;28;102811;-82
2021/09/07 00:31:17;;;;;;;;;12.00;12.00;;;;;18.07;41.20;99257.28;4952107;28;104477;-82
2021/09/07 00:33:44;;;;;;;;;14.25;12.00;;;;;18.07;41.31;99260.00;4976063;28;102686;-82
2021/09/07 00:36:11;;;;;;;;;9.25;7.25;;;;;18.06;40.76;99266.53;4952581;28;104063;-82
2021/09/07 00:38:38;;;;;;;;;10.75;10.00;;;;;18.06;40.44;99266.53;4972111;28;103208;-82
2021/09/07 00:41:06;;;;;;;;;12.75;10.00;;;;;18.04;40.79;99264.06;4961993;28;108578;-82
2021/09/07 00:43:33;;;;;;;;;12.00;10.75;;;;;18.03;40.48;99261.56;4970233;28;102612;-82
2021/09/07 00:46:00;;;;;;;;;10.50;10.50;;;;;17.99;40.93;99261.19;4957766;28;104099;-82
2021/09/07 00:48:28;;;;;;;;;16.00;12.75;;;;;17.95;40.47;99240.84;4972239;28;102447;-82
2021/09/07 00:50:55;;;;;;;;;15.75;13.75;;;;;17.96;40.21;99249.88;4970697;28;102336;-82
2021/09/07 00:53:22;;;;;;;;;14.25;12.00;;;;;17.96;40.66;99252.63;4974008;28;103615;-83
2021/09/07 00:55:49;;;;;;;;;13.50;13.00;;;;;17.94;40.30;99252.84;4977204;28;104060;-83
2021/09/07 00:58:16;;;;;;;;;17.75;14.75;;;;;17.91;40.13;99249.75;4934034;28;104418;-82
2021/09/07 01:00:43;;;;;;;;;13.50;12.50;;;;;17.88;40.35;99255.69;4933370;28;103916;-82
2021/09/07 01:03:10;;;;;;;;;14.25;12.25;;;;;17.87;40.72;99248.53;4933224;28;103754;-82
2021/09/07 01:05:37;;;;;;;;;12.00;12.00;;;;;17.87;40.83;99251.28;4951735;28;104092;-82
2021/09/07 01:08:05;;;;;;;;;12.00;11.00;;;;;17.87;40.19;99254.00;4963695;27;102651;-82
2021/09/07 01:10:34;;;;;;;;;11.00;10.50;;;;;17.87;40.29;99243.91;4935092;28;102211;-82
2021/09/07 01:13:01;;;;;;;;;15.00;13.25;;;;;17.83;40.42;99248.97;4956199;28;102709;-82
2021/09/07 01:15:29;;;;;;;;;12.75;11.00;;;;;17.83;40.15;99246.25;4977366;28;104124;-82
2021/09/07 01:17:56;;;;;;;;;13.00;11.00;;;;;17.82;40.52;99235.56;4966450;28;102530;-82
2021/09/07 01:20:23;;;;;;;;;13.00;13.00;;;;;17.80;39.57;99238.50;4954106;28;108034;-82
2021/09/07 01:22:50;;;;;;;;;14.00;11.75;;;;;17.76;39.90;99240.03;4980935;28;103873;-82
2021/09/07 01:25:18;;;;;;;;;13.25;11.25;;;;;17.77;40.37;99236.25;4969337;28;111350;-82
2021/09/07 01:27:45;;;;;;;;;11.75;11.00;;;;;17.74;40.27;99236.69;4964937;28;102378;-82
2021/09/07 01:30:14;;;;;;;;;11.75;9.25;;;;;17.72;39.67;99240.75;4978849;28;103346;-82
2021/09/07 01:32:41;;;;;;;;;13.25;12.25;;;;;17.71;39.68;99237.16;4960426;27;102286;-82
2021/09/07 01:35:09;;;;;;;;;15.00;13.25;;;;;17.67;40.52;99235.97;4967156;27;104165;-82
2021/09/07 01:37:40;;;;;;;;;10.00;10.00;;;;;17.68;40.12;99237.63;4964818;28;102509;-82
2021/09/07 01:40:07;;;;;;;;;12.50;11.50;;;;;17.64;40.22;99230.13;4952365;28;102483;-82
2021/09/07 01:42:35;;;;;;;;;13.75;13.00;;;;;17.63;39.51;99222.97;4979559;28;102641;-82
2021/09/07 01:45:02;;;;;;;;;12.75;10.00;;;;;17.65;40.08;99226.34;4971174;28;104051;-82
2021/09/07 01:47:32;;;;;;;;;13.00;12.00;;;;;17.62;39.83;99227.63;4974934;28;102605;-82
2021/09/07 01:49:59;;;;;;;;;11.00;11.00;;;;;17.62;39.76;99233.09;4982531;27;102592;-83
2021/09/07 01:52:26;;;;;;;;;13.25;12.25;;;;;17.63;40.21;99234.75;4974496;28;102813;-82
2021/09/07 01:54:53;;;;;;;;;13.00;13.00;;;;;17.62;40.00;99244.03;4966728;28;104200;-82
2021/09/07 01:57:20;;;;;;;;;11.50;10.25;;;;;17.66;40.39;99247.13;4972345;28;103849;-82
2021/09/07 01:59:47;;;;;;;;;10.50;10.00;;;;;17.61;40.07;99246.97;4973118;28;103461;-82
2021/09/07 02:02:14;;;;;;;;;11.00;10.50;;;;;17.57;40.15;99235.63;4968805;28;104094;-82
2021/09/07 02:04:45;;;;;;;;;10.50;10.50;;;;;17.59;40.37;99236.28;4972535;28;104149;-82
2021/09/07 02:07:13;;;;;;;;;12.00;11.00;;;;;17.60;39.96;99239.84;4966347;28;102709;-82
2021/09/07 02:09:41;;;;;;;;;10.75;10.00;;;;;17.56;40.01;99239.44;4950632;28;103571;-82
2021/09/07 02:12:08;;;;;;;;;11.75;11.25;;;;;17.54;39.98;99236.09;4977834;28;102673;-82
2021/09/07 02:14:35;;;;;;;;;13.00;12.00;;;;;17.54;40.33;99233.38;4965590;27;104110;-82
2021/09/07 02:17:03;;;;;;;;;12.25;10.75;;;;;17.53;39.61;99231.69;4980165;27;103635;-82
2021/09/07 02:19:30;;;;;;;;;13.25;12.75;;;;;17.52;40.34;99229.19;4969323;27;102770;-82
2021/09/07 02:21:57;;;;;;;;;14.00;11.75;;;;;17.50;40.43;99237.63;4955661;28;102612;-83
2021/09/07 02:24:24;;;;;;;;;11.75;10.75;;;;;17.50;40.52;99237.63;4960334;28;103819;-83
2021/09/07 02:26:51;;;;;;;;;12.00;12.00;;;;;17.49;39.77;99240.59;4969832;28;103562;-82
2021/09/07 02:29:18;;;;;;;;;14.00;13.00;;;;;17.48;40.04;99236.19;4956790;28;103506;-82
2021/09/07 02:31:45;;;;;;;;;12.75;11.25;;;;;17.48;39.73;99233.44;4963729;28;102698;-83
2021/09/07 02:34:12;;;;;;;;;13.00;11.00;;;;;17.45;39.25;99218.34;4926284;28;104173;-82
2021/09/07 02:36:41;;;;;;;;;15.00;14.25;;;;;17.46;40.79;99220.03;4951836;28;102489;-82
2021/09/07 02:39:08;;;;;;;;;16.25;13.25;;;;;17.42;39.98;99216.88;4962954;28;103381;-82
2021/09/07 02:41:35;;;;;;;;;9.00;8.00;;;;;17.40;40.48;99212.72;4965859;28;102410;-83
2021/09/07 02:44:03;;;;;;;;;14.50;13.75;;;;;17.38;40.53;99217.63;4937591;28;104005;-82
2021/09/07 02:46:30;;;;;;;;;12.25;12.25;;;;;17.37;39.88;99210.47;4956759;28;103225;-82
2021/09/07 02:48:57;;;;;;;;;15.75;13.75;;;;;17.33;40.71;99210.09;4950332;28;102400;-82
2021/09/07 02:51:24;;;;;;;;;14.75;14.25;;;;;17.35;40.72;99205.22;4960172;28;102656;-82
2021/09/07 02:53:51;;;;;;;;;12.25;11.25;;;;;17.35;39.65;99202.50;4970846;28;104099;-82
2021/09/07 02:56:18;;;;;;;;;13.75;13.00;;;;;17.38;40.30;99193.00;4942441;28;102612;-82
2021/09/07 02:58:46;;;;;;;;;14.00;12.25;;;;;17.37;39.79;99194.91;4950870;28;102982;-82
2021/09/07 03:01:13;;;;;;;;;10.50;9.25;;;;;17.38;40.40;99199.28;4952859;28;102262;-82
2021/09/07 03:03:40;;;;;;;;;16.25;11.00;;;;;17.35;40.37;99198.91;4956472;28;105140;-82
2021/09/07 03:06:07;;;;;;;;;15.25;11.50;;;;;17.36;40.54;99195.97;4945603;28;102886;-82
2021/09/07 03:08:34;;;;;;;;;11.00;10.50;;;;;17.35;40.20;99204.38;4958489;28;103728;-82
2021/09/07 03:11:01;;;;;;;;;12.50;12.25;;;;;17.32;39.45;99199.38;4955700;28;103747;-82
2021/09/07 03:13:29;;;;;;;;;15.25;14.00;;;;;17.29;39.74;99194.38;4952746;28;104748;-82
2021/09/07 03:15:56;;;;;;;;;16.50;14.00;;;;;17.31;40.58;99205.91;4956234;28;104114;-83
2021/09/07 03:18:23;;;;;;;;;12.00;11.75;;;;;17.30;40.63;99196.03;4954317;28;105203;-82
2021/09/07 03:20:50;;;;;;;;;11.25;10.00;;;;;17.28;39.64;99188.09;4958019;28;102659;-82
2021/09/07 03:23:17;;;;;;;;;12.75;12.00;;;;;17.30;39.83;99194.13;4964210;28;104270;-82
2021/09/07 03:25:44;;;;;;;;;12.25;11.25;;;;;17.32;39.87;99192.03;4964770;28;102925;-82
2021/09/07 03:28:11;;;;;;;;;11.75;11.50;;;;;17.29;39.92;99187.00;4967393;27;102478;-82
2021/09/07 03:30:38;;;;;;;;;13.50;12.25;;;;;17.26;39.96;99189.34;4964134;28;103267;-83
2021/09/07 03:33:05;;;;;;;;;11.50;10.50;;;;;17.26;40.27;99200.28;4969544;27;105047;-82
2021/09/07 03:35:33;;;;;;;;;13.00;11.00;;;;;17.27;40.47;99193.78;4975494;28;103893;-82
2021/09/07 03:38:00;;;;;;;;;13.75;11.75;;;;;17.28;40.18;99195.44;4976924;27;102682;-82
2021/09/07 03:40:27;;;;;;;;;11.00;9.25;;;;;17.26;40.67;99192.09;4961624;28;102544;-82
2021/09/07 03:42:54;;;;;;;;;12.25;11.25;;;;;17.21;39.96;99192.78;4981935;28;104246;-82
2021/09/07 03:45:21;;;;;;;;;13.00;11.00;;;;;17.18;39.70;99193.25;4973068;28;102439;-83
2021/09/07 03:47:49;;;;;;;;;13.25;11.75;;;;;17.19;40.57;99194.09;4973821;27;110926;-82
2021/09/07 03:50:16;;;;;;;;;12.75;11.00;;;;;17.19;40.00;99194.09;4967811;28;102732;-82
2021/09/07 03:52:43;;;;;;;;;12.25;10.50;;;;;17.22;39.95;99194.47;4953248;28;104020;-83
2021/09/07 03:55:11;;;;;;;;;11.75;10.00;;;;;17.24;39.25;99196.97;4947700;28;103903;-83
2021/09/07 03:57:41;;;;;;;;;12.25;12.25;;;;;17.21;40.57;99197.41;4965102;28;104342;-82
2021/09/07 04:00:08;;;;;;;;;14.00;11.00;;;;;17.24;40.32;99200.53;4971347;28;103732;-82
2021/09/07 04:02:38;;;;;;;;;12.75;10.75;;;;;17.18;39.99;99198.72;4958174;28;104094;-83
2021/09/07 04:05:06;;;;;;;;;11.50;10.75;;;;;17.23;39.82;99195.28;4956568;28;102325;-82
2021/09/07 04:07:34;;;;;;;;;8.75;8.00;;;;;17.21;40.40;99197.41;4958741;28;102856;-82
2021/09/07 04:10:01;;;;;;;;;11.00;9.00;;;;;17.19;40.08;99194.09;4972647;28;102708;-82
2021/09/07 04:12:28;;;;;;;;;12.75;10.75;;;;;17.16;40.57;99200.81;4959169;28;104145;-82
2021/09/07 04:14:55;;;;;;;;;9.50;9.50;;;;;17.16;39.83;99189.06;4971119;28;103839;-82
2021/09/07 04:17:22;;;;;;;;;14.00;13.25;;;;;17.17;40.37;99190.72;4975132;28;102547;-82
2021/09/07 04:19:49;;;;;;;;;13.00;9.25;;;;;17.15;39.49;99188.25;4979035;28;102332;-82
2021/09/07 04:22:16;;;;;;;;;11.25;11.00;;;;;17.11;39.80;99191.66;4939356;28;104101;-82
2021/09/07 04:24:43;;;;;;;;;11.50;11.00;;;;;17.10;40.37;99187.25;4978485;28;103716;-82
2021/09/07 04:27:10;;;;;;;;;15.50;12.25;;;;;17.08;39.94;99183.91;4969633;28;102169;-83
2021/09/07 04:29:37;;;;;;;;;10.00;10.00;;;;;17.12;39.81;99188.69;4968134;28;102695;-83
2021/09/07 04:32:05;;;;;;;;;9.25;9.25;;;;;17.12;40.37;99190.59;4975853;28;104069;-82
2021/09/07 04:34:32;;;;;;;;;14.00;13.50;;;;;17.10;40.19;99190.84;4970923;28;103746;-82
2021/09/07 04:36:59;;;;;;;;;10.75;10.25;;;;;17.11;40.48;99191.66;4977781;27;107206;-82
2021/09/07 04:39:26;;;;;;;;;11.75;10.00;;;;;17.09;40.41;99193.78;4979890;27;102772;-82
2021/09/07 04:41:53;;;;;;;;;10.00;10.00;;;;;17.07;40.66;99184.97;4970763;28;104090;-82
2021/09/07 04:44:23;;;;;;;;;10.00;10.00;;;;;17.06;40.04;99189.63;4976365;28;105794;-83
2021/09/07 04:46:50;;;;;;;;;13.00;10.75;;;;;17.06;40.66;99189.63;4965560;27;104256;-82
2021/09/07 04:49:17;;;;;;;;;13.50;11.00;;;;;17.08;40.47;99192.94;4966892;28;102927;-82
2021/09/07 04:51:44;;;;;;;;;11.75;10.50;;;;;17.06;40.17;99194.25;4972167;28;104340;-82
2021/09/07 04:54:11;;;;;;;;;10.75;10.00;;;;;17.04;40.70;99190.91;4971587;27;102494;-82
2021/09/07 04:56:38;;;;;;;;;12.50;10.75;;;;;17.06;40.36;99188.78;4971718;27;102663;-82
2021/09/07 04:59:05;;;;;;;;;10.50;10.00;;;;;17.04;40.00;99183.53;4984106;28;104059;-82
2021/09/07 05:01:32;;;;;;;;;13.00;11.25;;;;;17.07;40.95;99190.44;4978577;28;104113;-82
2021/09/07 05:03:59;;;;;;;;;13.50;12.00;;;;;17.03;40.38;99189.22;4972641;27;102389;-82
2021/09/07 05:06:26;;;;;;;;;12.75;12.00;;;;;17.03;41.22;99195.53;4977184;28;102611;-82
2021/09/07 05:08:54;;;;;;;;;11.50;10.25;;;;;17.02;40.42;99193.03;4959024;28;102523;-82
2021/09/07 05:11:21;;;;;;;;;12.50;11.00;;;;;17.04;40.63;99193.63;4974615;27;109215;-82
2021/09/07 05:13:48;;;;;;;;;10.25;9.75;;;;;17.04;40.52;99190.91;4983830;27;103514;-82
2021/09/07 05:16:15;;;;;;;;;11.25;10.25;;;;;17.02;40.33;99195.78;4975156;28;102469;-82
2021/09/07 05:18:42;;;;;;;;;15.50;10.50;;;;;16.99;41.21;99193.47;4972145;27;102443;-82
2021/09/07 05:21:09;;;;;;;;;8.50;7.75;;;;;17.02;41.00;99190.31;4964850;28;104261;-82
2021/09/07 05:23:37;;;;;;;;;10.75;9.75;;;;;17.01;40.13;99194.09;4966172;28;102678;-82
2021/09/07 05:26:05;;;;;;;;;13.00;12.00;;;;;17.05;41.17;99203.50;4982879;27;103588;-82
2021/09/07 05:28:32;;;;;;;;;14.00;11.75;;;;;17.01;40.90;99203.13;4970652;28;102660;-82
2021/09/07 05:31:14;;;;;;;;;12.00;11.00;;;;;17.06;41.16;99202.44;4970496;28;103055;-82
2021/09/07 05:33:41;;;;;;;;;11.25;9.75;;;;;17.04;40.05;99202.66;4977945;27;102511;-82
2021/09/07 05:36:08;;;;;;;;;12.00;12.00;;;;;17.02;40.57;99203.97;4972923;27;102474;-82
2021/09/07 05:38:35;;;;;;;;;9.00;9.00;;;;;17.01;40.75;99207.75;4983164;28;102809;-82
2021/09/07 05:41:02;;;;;;;;;11.25;10.25;;;;;16.99;40.49;99205.25;4987649;27;104028;-82
2021/09/07 05:43:29;;;;;;;;;14.25;12.25;;;;;16.98;40.92;99208.19;4974335;28;103385;-82
2021/09/07 05:45:57;;;;;;;;;11.00;9.75;;;;;16.98;40.57;99210.91;4975126;27;102138;-83
2021/09/07 05:48:24;;;;;;;;;13.25;10.25;;;;;17.01;40.94;99207.75;4984227;28;103663;-82
2021/09/07 05:50:51;;;;;;;;;11.50;10.00;;;;;17.01;41.13;99203.13;4973260;28;108913;-82
2021/09/07 05:53:18;;;;;;;;;10.75;8.00;;;;;17.03;41.40;99201.00;4959252;27;103286;-82
2021/09/07 05:55:45;;;;;;;;;11.50;11.00;;;;;17.02;41.40;99207.50;4965164;28;104259;-82
2021/09/07 05:58:13;;;;;;;;;10.00;10.00;;;;;17.01;40.73;99203.13;4968764;28;102431;-82
2021/09/07 06:00:40;;;;;;;;;10.75;9.50;;;;;17.03;41.47;99206.44;4958392;28;105415;-82
2021/09/07 06:03:08;;;;;;;;;9.25;9.25;;;;;17.04;40.71;99207.28;4977134;28;102698;-82
2021/09/07 06:05:36;;;;;;;;;10.50;9.50;;;;;17.06;40.91;99210.66;4954587;28;102716;-82
2021/09/07 06:08:03;;;;;;;;;8.25;8.25;;;;;17.05;41.42;99209.81;4952418;28;102669;-82
2021/09/07 06:10:30;;;;;;;;;10.25;8.75;;;;;17.02;41.26;99203.97;4964862;28;105048;-82
2021/09/07 06:13:00;;;;;;;;;14.00;11.75;;;;;16.98;41.53;99208.19;4978024;28;102504;-82
2021/09/07 06:15:28;;;;;;;;;13.25;11.25;;;;;17.02;42.10;99206.69;4968509;28;102977;-82
2021/09/07 06:17:55;;;;;;;;;12.75;11.75;;;;;17.04;41.51;99202.66;4974145;28;111492;-82
2021/09/07 06:20:23;;;;;;;;;12.25;10.75;;;;;17.06;41.08;99211.47;4981859;28;108946;-82
2021/09/07 06:22:51;;;;;;;;;12.00;11.75;;;;;17.07;41.46;99212.28;4961651;28;102348;-83
2021/09/07 06:25:19;;;;;;;;;11.25;10.50;;;;;17.05;41.28;99215.28;4973847;28;102384;-82
2021/09/07 06:27:46;;;;;;;;;14.00;10.50;;;;;17.06;41.49;99207.91;4970913;28;102705;-82
2021/09/07 06:30:14;;;;;;;;;12.00;9.00;;;;;17.08;41.94;99220.28;4976196;28;104060;-82
2021/09/07 06:32:41;;;;;;;;;11.25;9.75;;;;;17.11;42.27;99208.88;4973998;28;103102;-82
2021/09/07 06:35:09;;;;;;;;;11.75;10.25;;;;;17.12;42.03;99221.47;4967655;28;102438;-82
2021/09/07 06:37:36;;;;;;;;;11.50;11.50;;;;;17.12;42.28;99210.56;4967774;28;105372;-82
2021/09/07 06:40:05;;;;;;;;;9.50;9.25;;;;;17.14;41.36;99207.59;4974647;28;104082;-82
2021/09/07 06:42:33;;;;;;;;;8.75;8.50;;;;;17.13;41.91;99206.75;4964715;28;102520;-82
2021/09/07 06:45:00;;;;;;;;;10.00;8.50;;;;;17.15;41.74;99222.94;4968815;27;102117;-82
2021/09/07 06:47:27;;;;;;;;;11.00;10.00;;;;;17.14;42.12;99218.53;4978978;27;102497;-82
2021/09/07 06:49:54;;;;;;;;;9.00;9.00;;;;;17.15;41.42;99220.22;4977359;28;103828;-83
2021/09/07 06:52:23;;;;;;;;;9.25;6.75;;;;;17.15;42.35;99231.13;4973618;28;102533;-82
2021/09/07 06:54:50;;;;;;;;;9.75;8.75;;;;;17.17;42.26;99232.56;4947384;28;102447;-82
2021/09/07 06:57:17;;;;;;;;;8.25;8.00;;;;;17.17;42.36;99229.00;4969523;28;104080;-82
2021/09/07 06:59:44;;;;;;;;;9.25;8.25;;;;;17.16;41.70;99224.59;4967183;28;103228;-82
2021/09/07 07:02:11;;;;;;;;;6.00;6.00;;;;;17.14;42.56;99229.47;4966990;28;102582;-82
2021/09/07 07:04:39;;;;;;;;;12.50;9.50;;;;;17.15;41.75;99229.25;4972659;28;102234;-82
2021/09/07 07:07:08;;;;;;;;;13.50;10.00;;;;;17.15;42.48;99237.44;4969975;28;102564;-82
2021/09/07 07:09:35;;;;;;;;;10.25;9.50;;;;;17.16;41.78;99240.97;4974465;28;103722;-82
2021/09/07 07:12:03;;;;;;;;;13.25;10.00;;;;;17.18;42.16;99242.44;4958015;28;102677;-82
2021/09/07 07:14:30;;;;;;;;;8.00;8.00;;;;;17.20;42.47;99245.75;4976568;28;102459;-82
2021/09/07 07:16:57;;;;;;;;;10.25;10.00;;;;;17.22;41.96;99248.28;4982933;28;102726;-82
2021/09/07 07:19:24;;;;;;;;;9.25;9.25;;;;;17.23;41.81;99239.88;4979021;28;104081;-82
2021/09/07 07:21:51;;;;;;;;;9.25;9.00;;;;;17.24;43.03;99246.16;4975686;28;102722;-82
2021/09/07 07:24:18;;;;;;;;;8.25;7.00;;;;;17.23;42.71;99242.59;4971250;28;102996;-83
2021/09/07 07:26:59;;;;;;;;;8.75;8.50;;;;;17.25;42.99;99234.16;4970507;28;102697;-82
2021/09/07 07:29:26;;;;;;;;;7.50;6.00;;;;;17.20;43.08;99243.03;4973332;28;104290;-82
2021/09/07 07:31:55;;;;;;;;;10.75;10.00;;;;;17.18;42.51;99236.13;4976186;28;102561;-82
2021/09/07 07:34:22;;;;;;;;;11.50;10.25;;;;;17.21;42.91;99232.94;4976525;28;105073;-82
2021/09/07 07:36:53;;;;;;;;;11.00;9.25;;;;;17.24;42.47;99235.22;4963595;28;102723;-82
2021/09/07 07:39:21;;;;;;;;;12.25;9.50;;;;;17.20;42.92;99239.50;4987865;28;104011;-82
2021/09/07 07:41:48;;;;;;;;;11.00;8.50;;;;;17.21;43.69;99241.13;4967253;28;102506;-82
2021/09/07 07:44:15;;;;;;;;;11.00;10.00;;;;;17.19;43.63;99233.19;4975097;28;102525;-82
2021/09/07 07:46:42;;;;;;;;;9.00;9.00;;;;;17.20;42.89;99253.16;4976387;28;102246;-82
2021/09/07 07:49:10;;;;;;;;;11.50;9.75;;;;;17.20;43.67;99255.88;4966982;28;104101;-82
2021/09/07 07:51:37;;;;;;;;;10.00;9.00;;;;;17.19;43.49;99254.22;4986182;28;102826;-82
2021/09/07 07:54:07;;;;;;;;;10.50;9.00;;;;;17.15;43.96;99253.00;4969274;28;102340;-82
2021/09/07 07:56:37;;;;;;;;;13.00;9.00;;;;;17.17;43.95;99254.44;4971963;28;102618;-82
2021/09/07 07:59:04;;;;;;;;;8.00;8.00;;;;;17.17;44.02;99257.16;4965030;28;107348;-82
2021/09/07 08:01:31;;;;;;;;;10.50;9.25;;;;;17.19;44.22;99263.25;4970050;27;102304;-83
2021/09/07 08:03:59;;;;;;;;;8.25;8.25;;;;;17.21;43.54;99263.84;4968020;28;102459;-82
2021/09/07 08:06:26;;;;;;;;;8.25;7.00;;;;;17.24;44.04;99262.56;4979481;28;102803;-83
2021/09/07 08:08:53;;;;;;;;;8.75;8.00;;;;;17.26;44.43;99260.44;4964379;28;111693;-82
2021/09/07 08:11:20;;;;;;;;;8.25;8.25;;;;;17.28;44.52;99270.09;4964531;28;102191;-82
2021/09/07 08:13:50;;;;;;;;;7.75;7.75;;;;;17.29;43.69;99263.53;4974593;28;102058;-82
2021/09/07 08:16:18;;;;;;;;;5.25;5.25;;;;;17.31;43.99;99263.31;4978433;28;105301;-82
2021/09/07 08:18:48;;;;;;;;;8.25;7.00;;;;;17.31;44.80;99268.78;4971361;28;104194;-82
2021/09/07 08:21:15;;;;;;;;;6.50;5.50;;;;;17.34;44.64;99268.31;4955739;28;102295;-82
2021/09/07 08:23:43;;;;;;;;;9.00;8.25;;;;;17.37;44.67;99267.88;4957635;28;104751;-82
2021/09/07 08:26:10;;;;;;;;;7.00;7.00;;;;;17.37;45.21;99273.34;4977450;28;102593;-82
2021/09/07 08:28:38;;;;;;;;;8.00;6.00;;;;;17.38;44.70;99269.56;4978320;28;103766;-82
2021/09/07 08:31:05;;;;;;;;;6.00;6.00;;;;;17.39;44.50;99266.56;4971277;28;102535;-82
2021/09/07 08:33:32;;;;;;;;;7.50;7.00;;;;;17.41;44.67;99282.75;4964801;28;102881;-82
2021/09/07 08:35:59;;;;;;;;;6.50;6.00;;;;;17.42;44.51;99270.75;4966424;28;102283;-82
2021/09/07 08:38:27;;;;;;;;;8.50;7.25;;;;;17.43;44.80;99272.41;4959342;28;104086;-82
2021/09/07 08:40:54;;;;;;;;;8.75;7.00;;;;;17.46;45.33;99282.06;4967908;28;104945;-82
2021/09/07 08:43:21;;;;;;;;;6.75;5.75;;;;;17.47;45.17;99287.28;4971289;28;102232;-82
2021/09/07 08:45:54;;;;;;;;;7.00;5.75;;;;;17.48;45.02;99285.41;4965714;28;102332;-82
2021/09/07 08:48:24;;;;;;;;;9.25;6.75;;;;;17.48;45.15;99275.28;4975918;28;104265;-82
2021/09/07 08:50:54;;;;;;;;;9.25;8.50;;;;;17.51;44.29;99274.88;4960298;28;102784;-82
2021/09/07 08:53:28;;;;;;;;;7.00;6.00;;;;;17.51;44.67;99265.81;4971959;28;102483;-82
2021/09/07 08:55:55;;;;;;;;;8.25;7.25;;;;;17.52;45.77;99272.94;4980775;28;103257;-82
2021/09/07 08:58:23;;;;;;;;;8.75;6.50;;;;;17.53;44.40;99275.44;4979076;28;103793;-82
2021/09/07 09:00:50;;;;;;;;;7.75;7.50;;;;;17.56;45.19;99282.38;4962795;28;102293;-83
2021/09/07 09:03:17;;;;;;;;;8.50;7.00;;;;;17.56;44.41;99277.72;4954916;28;102356;-82
2021/09/07 09:05:48;;;;;;;;;6.00;5.00;;;;;17.58;45.12;99269.28;4967430;28;102521;-82
2021/09/07 09:08:16;;;;;;;;;8.75;7.50;;;;;17.60;45.24;99268.03;4947797;28;104075;-82
2021/09/07 09:10:44;;;;;;;;;6.00;5.25;;;;;17.63;45.15;99272.22;4972821;28;102364;-82
2021/09/07 09:13:16;;;;;;;;;8.00;6.00;;;;;17.62;45.14;99274.09;4964851;28;102497;-82
2021/09/07 09:16:05;;;;;;;;;7.50;6.50;;;;;17.66;44.75;99278.03;4946037;28;102308;-82
2021/09/07 09:18:33;;;;;;;;;6.00;6.00;;;;;17.67;44.31;99274.25;4955291;28;108695;-83
2021/09/07 09:21:27;;;;;;;;;6.00;5.75;;;;;17.68;43.82;99275.94;4958751;28;104489;-82
2021/09/07 09:24:13;;;;;;;;;6.00;5.00;;;;;17.70;44.61;99279.25;4954006;28;102945;-82
2021/09/07 09:27:00;;;;;;;;;7.25;6.75;;;;;17.71;44.89;99269.16;4908769;28;105121;-82
2021/09/07 09:29:31;;;;;;;;;7.25;6.50;;;;;17.72;44.80;99277.13;4938351;28;108709;-82
2021/09/07 09:32:03;;;;;;;;;8.50;7.00;;;;;17.73;44.53;99264.31;4953461;28;102637;-82
2021/09/07 09:34:31;;;;;;;;;7.75;6.00;;;;;17.74;44.26;99268.72;4943740;28;102747;-82
2021/09/07 09:37:05;;;;;;;;;7.00;6.00;;;;;17.75;44.07;99264.88;4943320;28;102281;-82
2021/09/07 09:39:50;;;;;;;;;5.00;5.00;;;;;17.76;44.60;99267.41;4948927;28;108787;-82
2021/09/07 09:42:19;;;;;;;;;7.00;6.00;;;;;17.78;45.11;99261.72;4951127;28;102038;-82
2021/09/07 09:44:46;;;;;;;;;5.50;5.00;;;;;17.78;44.65;99265.28;4958445;28;111604;-82
2021/09/07 09:47:13;;;;;;;;;5.33;5.33;;;;;17.81;45.51;99258.50;4960283;28;102651;-82
2021/09/07 09:49:43;;;;;;;;;6.00;6.00;;;;;17.81;44.75;99264.81;4929789;28;103763;-82
2021/09/07 09:52:10;;;;;;;;;7.75;7.25;;;;;17.82;44.53;99269.22;4930726;28;102261;-82
2021/09/07 09:54:39;;;;;;;;;6.00;6.00;;;;;17.84;44.59;99263.50;4948328;28;102767;-82
2021/09/07 09:57:06;;;;;;;;;10.00;7.75;;;;;17.86;44.60;99263.28;4950564;28;102777;-82
2021/09/07 09:59:33;;;;;;;;;6.00;5.00;;;;;17.86;44.61;99263.28;4951941;28;104061;-82
2021/09/07 10:02:00;;;;;;;;;7.00;5.75;;;;;17.86;45.02;99255.91;4962509;28;102393;-82
2021/09/07 10:04:29;;;;;;;;;7.00;6.00;;;;;17.89;44.94;99260.06;4936491;28;102523;-82
2021/09/07 10:06:56;;;;;;;;;4.25;4.25;;;;;17.89;44.43;99260.06;4957192;28;102387;-82
2021/09/07 10:09:24;;;;;;;;;5.25;5.25;;;;;17.87;44.86;99263.06;4952499;28;104227;-82
2021/09/07 10:12:09;;;;;;;;;6.75;5.00;;;;;17.90;44.86;99264.47;4946720;28;103111;-82
2021/09/07 10:14:40;;;;;;;;;7.25;5.00;;;;;17.93;44.53;99264.84;4937365;28;102631;-82
2021/09/07 10:17:46;;;;;;;;;8.25;5.00;;;;;17.94;44.71;99262.94;4960991;28;102454;-82
2021/09/07 10:20:23;;;;;;;;;8.00;7.00;;;;;17.95;44.92;99256.41;4934932;28;108740;-82
2021/09/07 10:23:18;;;;;;;;;7.25;6.75;;;;;17.96;44.52;99256.19;4946098;28;104266;-82
2021/09/07 10:25:58;;;;;;;;;7.25;6.00;;;;;17.98;44.57;99253.19;4969670;28;102550;-82
2021/09/07 10:28:42;;;;;;;;;7.00;6.75;;;;;17.99;44.83;99252.13;4986770;28;102424;-82
2021/09/07 10:31:19;;;;;;;;;6.25;5.25;;;;;18.00;44.85;99248.34;4971187;28;109687;-82
2021/09/07 10:33:58;;;;;;;;;5.50;5.25;;;;;18.01;44.69;99242.63;4968700;28;102645;-82
2021/09/07 10:36:30;;;;;;;;;7.75;6.00;;;;;18.00;44.83;99242.88;4976873;28;104660;-82
2021/09/07 10:38:58;;;;;;;;;5.50;5.00;;;;;18.03;45.36;99245.97;4961426;28;102189;-82
2021/09/07 10:41:35;;;;;;;;;7.25;5.25;;;;;18.05;45.43;99245.75;4955282;28;105686;-82
2021/09/07 10:44:09;;;;;;;;;4.75;4.75;;;;;18.06;45.13;99244.66;4987170;28;102465;-82
2021/09/07 10:46:58;;;;;;;;;6.00;6.00;;;;;18.09;45.11;99244.22;4960588;28;103486;-82
2021/09/07 10:49:32;;;;;;;;;8.33;6.33;;;;;18.11;45.16;99242.06;4975616;28;103055;-82
2021/09/07 10:52:17;;;;;;;;;6.25;5.75;;;;;18.11;45.26;99242.06;4980403;28;108858;-82
2021/09/07 10:54:54;;;;;;;;;5.75;5.75;;;;;18.12;45.01;99243.72;4980098;27;102202;-82
2021/09/07 10:57:41;;;;;;;;;7.67;7.00;;;;;18.14;45.21;99231.50;4957060;28;102579;-82
2021/09/07 11:00:14;;;;;;;;;6.25;5.50;;;;;18.15;44.70;99233.13;4977378;28;102287;-82
2021/09/07 11:02:41;;;;;;;;;6.25;6.25;;;;;18.15;45.54;99233.13;4977317;28;104097;-82
2021/09/07 11:05:25;;;;;;;;;6.75;5.75;;;;;18.18;45.58;99226.38;4973040;28;102474;-82
2021/09/07 11:08:04;;;;;;;;;6.00;5.00;;;;;18.18;45.42;99229.94;4968559;28;102304;-82
2021/09/07 11:11:19;;;;;;;;;6.25;5.25;;;;;18.20;45.19;99230.53;4985534;28;102569;-82
2021/09/07 11:13:46;;;;;;;;;4.67;4.67;;;;;18.21;45.28;99228.63;4976639;28;108565;-82
2021/09/07 11:16:13;;;;;;;;;7.00;6.00;;;;;18.23;44.94;99224.63;4960903;27;105742;-82
2021/09/07 11:18:42;;;;;;;;;7.00;6.00;;;;;18.25;45.33;99229.84;4974983;28;102504;-82
2021/09/07 11:21:09;;;;;;;;;6.00;5.67;;;;;18.26;44.88;99228.78;4975659;27;102402;-82
2021/09/07 11:23:37;;;;;;;;;6.00;6.00;;;;;18.27;45.64;99230.44;4968510;28;104052;-82
2021/09/07 11:26:05;;;;;;;;;5.00;5.00;;;;;18.29;45.11;99223.66;4958167;28;104359;-82